Terminal Aerodrome Forecast
Issued by NWS

Home | Current Version | Previous Version | Text Only | Print | Product List | Glossary On
Versions: 1 2 3 4 5 6 7 8 9 10 11 12 13 14 15 16 17 18 19 20 21 22 23 24
000
FTUS43 KPAH 271700
TAFOWB
TAF
KOWB 271729Z 2718/2818 VRB04KT P6SM SCT040
     FM280100 00000KT P6SM SCT035
     FM280900 00000KT 5SM BR SCT025
     FM281400 12003KT P6SM SCT050=

USA.gov is the U.S. government's official web portal to all federal, state and local government web resources and services.